Time;durP1;ratioP1;P1;durP2;ratioP2;P2;SDS_P1;SDS_P2;PMS_P1;PMS_P2;Temp;Humidity;BMP_temperature;BMP_pressure;BME280_temperature;BME280_humidity;BME280_pressure;Samples;Min_cycle;Max_cycle;Signal;HPM_P1;HPM_P2
2021/04/18 00:02:11;;;;;;;5.67;5.17;;;;;;;2.89;100.00;97050.56;4971836;28;20246;-68
2021/04/18 00:04:37;;;;;;;5.67;5.07;;;;;;;2.81;100.00;97046.22;4971522;28;20705;-65
2021/04/18 00:07:03;;;;;;;6.67;4.97;;;;;;;3.07;100.00;97052.84;4972036;28;20193;-65
2021/04/18 00:09:28;;;;;;;6.13;5.50;;;;;;;3.03;100.00;97038.63;4971386;28;20215;-64
2021/04/18 00:11:54;;;;;;;6.17;5.57;;;;;;;3.09;100.00;97036.16;4971996;28;20275;-65
2021/04/18 00:14:19;;;;;;;5.97;5.37;;;;;;;3.07;100.00;97039.91;4970835;28;20193;-65
2021/04/18 00:16:44;;;;;;;7.20;5.60;;;;;;;3.19;100.00;97031.56;4971871;28;20242;-66
2021/04/18 00:19:10;;;;;;;6.40;5.20;;;;;;;3.27;100.00;97035.88;4972741;28;20228;-67
2021/04/18 00:21:35;;;;;;;6.40;5.43;;;;;;;3.31;100.00;97029.34;4974774;28;20181;-65
2021/04/18 00:24:01;;;;;;;12.47;5.30;;;;;;;3.37;98.83;97031.25;4975704;28;20593;-66
2021/04/18 00:26:26;;;;;;;7.30;5.83;;;;;;;3.16;100.00;97031.91;4974463;28;20180;-65
2021/04/18 00:28:52;;;;;;;6.57;5.87;;;;;;;3.13;100.00;97034.03;4975354;28;20219;-65
2021/04/18 00:31:18;;;;;;;6.80;6.10;;;;;;;3.08;99.95;97038.91;4974339;28;20189;-63
2021/04/18 00:33:43;;;;;;;6.93;6.23;;;;;;;3.12;100.00;97032.44;4974878;28;20552;-65
2021/04/18 00:36:09;;;;;;;7.17;6.10;;;;;;;3.02;100.00;97034.44;4975413;28;20191;-64
2021/04/18 00:38:35;;;;;;;7.37;5.47;;;;;;;2.96;100.00;97022.97;4957397;28;20200;-64
2021/04/18 00:41:01;;;;;;;9.10;6.30;;;;;;;2.91;100.00;97020.91;4957938;28;20641;-64
2021/04/18 00:43:26;;;;;;;7.93;6.40;;;;;;;2.99;100.00;97025.25;4957306;28;20251;-64
2021/04/18 00:45:52;;;;;;;6.20;5.60;;;;;;;2.97;100.00;97019.44;4975436;28;20212;-64
2021/04/18 00:48:17;;;;;;;6.27;5.73;;;;;;;3.08;100.00;97019.03;4974376;28;20578;-64
2021/04/18 00:50:43;;;;;;;5.97;5.47;;;;;;;3.03;100.00;97020.50;4974439;28;20189;-64
2021/04/18 00:53:09;;;;;;;7.87;6.00;;;;;;;2.99;100.00;97027.84;4957445;28;20232;-64
2021/04/18 00:55:40;;;;;;;6.33;5.73;;;;;;;2.93;100.00;97020.75;4973822;28;20316;-64
2021/04/18 00:58:06;;;;;;;6.50;5.90;;;;;;;2.98;100.00;97023.63;4974867;28;20626;-64
2021/04/18 01:00:33;;;;;;;6.80;6.10;;;;;;;3.01;100.00;97025.84;4974031;28;20257;-64
2021/04/18 01:02:59;;;;;;;6.77;6.17;;;;;;;2.80;100.00;97021.31;4973897;28;20191;-63
2021/04/18 01:05:25;;;;;;;7.03;6.33;;;;;;;2.92;100.00;97027.72;4974040;28;20544;-64
2021/04/18 01:07:50;;;;;;;8.00;6.90;;;;;;;2.98;100.00;97018.44;4974725;28;20753;-64
2021/04/18 01:10:17;;;;;;;7.40;6.67;;;;;;;2.90;100.00;97013.31;4956655;28;20223;-65
2021/04/18 01:12:43;;;;;;;9.00;7.07;;;;;;;2.77;100.00;97011.31;4974589;28;20323;-64
2021/04/18 01:15:11;;;;;;;8.90;7.47;;;;;;;2.88;100.00;97013.50;4974892;28;20627;-65
2021/04/18 01:17:36;;;;;;;8.07;7.27;;;;;;;2.89;100.00;97014.31;4973252;28;20271;-66
2021/04/18 01:20:09;;;;;;;8.10;7.23;;;;;;;2.91;100.00;97018.34;4974929;28;20271;-66
2021/04/18 01:22:34;;;;;;;8.77;7.87;;;;;;;2.88;100.00;97013.50;4973672;28;20259;-66
2021/04/18 01:25:00;;;;;;;8.33;7.53;;;;;;;2.79;100.00;97013.72;4974582;28;20191;-66
2021/04/18 01:27:25;;;;;;;10.10;7.27;;;;;;;2.84;100.00;97008.88;4973742;28;20529;-66
2021/04/18 01:29:51;;;;;;;8.77;7.97;;;;;;;2.86;100.00;97004.28;4974436;28;20212;-65
2021/04/18 01:32:20;;;;;;;8.00;7.30;;;;;;;2.90;100.00;97001.19;4973077;28;20672;-69
2021/04/18 01:34:47;;;;;;;8.13;7.33;;;;;;;2.87;100.00;96998.16;4973769;28;20249;-65
2021/04/18 01:37:13;;;;;;;8.63;7.73;;;;;;;2.88;100.00;96999.75;4974175;28;20222;-67
2021/04/18 01:39:39;;;;;;;9.43;8.33;;;;;;;2.95;100.00;96998.09;4973640;28;20220;-66
2021/04/18 01:42:05;;;;;;;7.90;7.10;;;;;;;2.84;100.00;96982.97;4974444;28;20223;-65
2021/04/18 01:44:30;;;;;;;9.53;7.47;;;;;;;2.97;100.00;96980.59;4973876;28;20188;-64
2021/04/18 01:46:56;;;;;;;8.83;7.70;;;;;;;2.91;100.00;96991.63;4974049;28;20193;-65
2021/04/18 01:49:21;;;;;;;8.53;7.73;;;;;;;3.08;100.00;96985.34;4955371;28;20185;-65
2021/04/18 01:51:46;;;;;;;8.97;8.17;;;;;;;3.06;100.00;96983.94;4973245;28;20575;-65
2021/04/18 01:54:12;;;;;;;8.40;7.60;;;;;;;3.02;100.00;96986.06;4972610;28;20243;-65
2021/04/18 01:56:37;;;;;;;8.93;7.17;;;;;;;2.97;100.00;96985.78;4973014;28;20629;-65
2021/04/18 01:59:03;;;;;;;8.13;7.33;;;;;;;3.09;100.00;96986.97;4973369;28;20185;-65
2021/04/18 02:01:28;;;;;;;8.30;7.50;;;;;;;3.09;100.00;96986.16;4955679;28;20196;-65
2021/04/18 02:03:54;;;;;;;9.20;7.80;;;;;;;3.17;100.00;96989.50;4973477;28;20188;-65
2021/04/18 02:06:20;;;;;;;8.80;8.03;;;;;;;3.19;100.00;96987.53;4972782;28;20192;-65
2021/04/18 02:08:45;;;;;;;8.43;7.63;;;;;;;3.12;100.00;96988.41;4972885;28;20199;-65
2021/04/18 02:11:10;;;;;;;8.07;7.37;;;;;;;3.11;100.00;96995.38;4973185;28;20554;-64
2021/04/18 02:13:36;;;;;;;8.67;7.77;;;;;;;3.14;100.00;96984.66;4972374;28;20204;-65
2021/04/18 02:16:01;;;;;;;8.30;7.30;;;;;;;3.11;100.00;96987.63;4973592;28;20191;-65
2021/04/18 02:18:27;;;;;;;9.50;7.90;;;;;;;3.11;100.00;96989.41;4972522;28;20523;-65
2021/04/18 02:20:52;;;;;;;8.30;7.50;;;;;;;2.99;100.00;96993.38;4956099;28;20193;-65
2021/04/18 02:23:18;;;;;;;7.60;6.90;;;;;;;3.08;100.00;96979.38;4972268;28;20275;-66
2021/04/18 02:25:43;;;;;;;8.77;7.50;;;;;;;3.24;100.00;96981.81;4973127;28;20188;-65
2021/04/18 02:28:09;;;;;;;8.00;7.20;;;;;;;3.13;100.00;96988.22;4972817;28;20264;-65
2021/04/18 02:30:35;;;;;;;8.40;7.53;;;;;;;3.17;100.00;96984.31;4972476;28;20286;-64
2021/04/18 02:33:01;;;;;;;9.13;8.23;;;;;;;3.13;100.00;96979.66;4973183;28;20284;-65
2021/04/18 02:35:27;;;;;;;9.17;8.30;;;;;;;3.02;100.00;96982.66;4971956;28;20656;-64
2021/04/18 02:37:52;;;;;;;9.27;8.20;;;;;;;3.01;100.00;96994.00;4972990;28;20650;-64
2021/04/18 02:40:18;;;;;;;8.53;7.70;;;;;;;2.95;100.00;96992.94;4972118;28;20220;-68
2021/04/18 02:42:44;;;;;;;8.77;7.90;;;;;;;3.04;100.00;96989.28;4972455;28;20235;-64
2021/04/18 02:45:10;;;;;;;9.07;7.63;;;;;;;3.04;100.00;96986.69;4973021;28;20196;-64
2021/04/18 02:47:36;;;;;;;8.43;7.63;;;;;;;2.92;100.00;96991.47;4971825;28;20211;-64
2021/04/18 02:50:06;;;;;;;8.37;7.57;;;;;;;2.97;100.00;96990.94;4959457;28;20196;-64
2021/04/18 02:52:31;;;;;;;8.60;7.83;;;;;;;3.04;100.00;96989.28;4971769;28;20259;-64
2021/04/18 02:54:57;;;;;;;8.40;7.60;;;;;;;3.10;100.00;96991.19;4954579;28;20323;-64
2021/04/18 02:57:22;;;;;;;8.80;7.93;;;;;;;3.22;100.00;96987.19;4971904;28;20709;-64
2021/04/18 02:59:48;;;;;;;9.47;8.37;;;;;;;3.29;100.00;96989.84;4957625;28;20274;-64
2021/04/18 03:02:14;;;;;;;8.63;7.77;;;;;;;3.27;100.00;96982.28;4972410;28;20638;-67
2021/04/18 03:04:39;;;;;;;9.37;8.47;;;;;;;3.14;100.00;96984.66;4972000;28;20193;-65
2021/04/18 03:07:05;;;;;;;8.50;7.57;;;;;;;3.32;100.00;96981.75;4972419;28;20210;-64
2021/04/18 03:09:30;;;;;;;9.43;8.53;;;;;;;3.27;100.00;96982.28;4971605;28;20649;-64
2021/04/18 03:11:55;;;;;;;9.00;8.07;;;;;;;3.06;100.00;96983.94;4973018;28;20208;-64
2021/04/18 03:14:21;;;;;;;9.93;7.90;;;;;;;3.18;100.00;96983.31;4954403;28;20204;-65
2021/04/18 03:16:46;;;;;;;9.37;8.17;;;;;;;3.18;100.00;96978.16;4972872;28;20188;-64
2021/04/18 03:19:12;;;;;;;8.43;7.53;;;;;;;3.20;100.00;96980.56;4972184;28;20203;-64
2021/04/18 03:21:37;;;;;;;8.40;7.60;;;;;;;3.20;100.00;96976.19;4970931;28;20223;-64
2021/04/18 03:24:04;;;;;;;9.47;8.57;;;;;;;3.27;100.00;96969.34;4969009;28;20200;-64
2021/04/18 03:26:29;;;;;;;8.77;7.97;;;;;;;3.44;100.00;96977.75;4971748;28;20621;-64
2021/04/18 03:28:55;;;;;;;9.20;7.87;;;;;;;3.43;100.00;96980.53;4955122;28;20211;-65
2021/04/18 03:31:20;;;;;;;8.93;8.03;;;;;;;3.48;100.00;96980.78;4971629;28;20542;-65
2021/04/18 03:33:46;;;;;;;9.73;8.27;;;;;;;3.50;99.40;96978.84;4954778;28;20569;-64
2021/04/18 03:36:12;;;;;;;8.80;8.00;;;;;;;3.51;100.00;96977.88;4971898;28;20181;-65
2021/04/18 03:38:38;;;;;;;9.90;8.90;;;;;;;3.52;99.62;96977.66;4954486;28;20196;-64
2021/04/18 03:41:03;;;;;;;9.57;8.57;;;;;;;3.47;100.00;96974.81;4954904;28;20185;-64
2021/04/18 03:43:29;;;;;;;8.53;7.33;;;;;;;3.43;100.00;96976.16;4971348;28;20188;-64
2021/04/18 03:45:54;;;;;;;9.97;8.20;;;;;;;3.51;100.00;96981.22;4972392;28;20177;-64
2021/04/18 03:48:19;;;;;;;9.60;8.70;;;;;;;3.57;99.42;96975.34;4971473;28;20258;-68
2021/04/18 03:50:45;;;;;;;8.80;8.00;;;;;;;3.66;99.33;96978.66;4971656;28;20185;-64
2021/04/18 03:53:10;;;;;;;8.60;7.80;;;;;;;3.67;98.58;96975.91;4971728;28;20240;-63
2021/04/18 03:55:36;;;;;;;8.97;8.13;;;;;;;3.58;98.70;96971.78;4973979;28;20551;-64
2021/04/18 03:58:01;;;;;;;9.53;8.53;;;;;;;3.52;99.02;96975.06;4975943;28;20741;-65
2021/04/18 04:00:27;;;;;;;9.50;8.60;;;;;;;3.49;100.00;96972.03;4975068;28;20189;-64
2021/04/18 04:02:52;;;;;;;9.30;8.40;;;;;;;3.51;100.00;96973.47;4975350;28;20244;-65
2021/04/18 04:05:18;;;;;;;12.00;9.00;;;;;;;3.54;98.69;96973.13;4975542;28;20316;-68
2021/04/18 04:07:43;;;;;;;9.37;8.37;;;;;;;3.40;99.51;96978.28;4975821;28;20196;-64
2021/04/18 04:10:09;;;;;;;10.40;8.80;;;;;;;3.30;99.96;96981.91;4975138;28;20586;-64
2021/04/18 04:12:34;;;;;;;9.77;8.73;;;;;;;3.31;98.89;96980.13;4974257;28;20239;-63
2021/04/18 04:15:00;;;;;;;9.73;8.73;;;;;;;3.02;100.00;96977.47;4975586;28;20223;-64
2021/04/18 04:17:28;;;;;;;10.40;9.33;;;;;;;3.19;100.00;96976.38;4975371;28;20195;-64
2021/04/18 04:19:54;;;;;;;9.33;8.43;;;;;;;3.21;99.87;96977.00;4975742;28;20192;-63
2021/04/18 04:22:19;;;;;;;10.03;9.03;;;;;;;3.23;99.91;96983.59;4974965;28;20181;-69
2021/04/18 04:24:46;;;;;;;10.20;9.10;;;;;;;3.29;100.00;96976.91;4975337;28;20524;-64
2021/04/18 04:27:13;;;;;;;10.50;9.40;;;;;;;3.18;100.00;96983.31;4975035;28;20291;-63
2021/04/18 04:29:38;;;;;;;11.43;10.23;;;;;;;3.18;100.00;96979.94;4974794;28;20191;-64
2021/04/18 04:32:04;;;;;;;11.83;9.77;;;;;;;3.11;100.00;96984.22;4975632;28;20197;-64
2021/04/18 04:34:29;;;;;;;11.53;9.40;;;;;;;3.08;100.00;96985.34;4974186;28;20275;-64
2021/04/18 04:36:55;;;;;;;9.87;8.97;;;;;;;3.08;100.00;96987.94;4958130;28;20181;-63
2021/04/18 04:39:20;;;;;;;11.20;9.20;;;;;;;2.96;100.00;96989.34;4975018;28;20547;-68
2021/04/18 04:41:45;;;;;;;10.73;9.63;;;;;;;3.28;100.00;96986.50;4974733;28;20232;-64
2021/04/18 04:44:16;;;;;;;10.90;9.90;;;;;;;3.23;100.00;96990.59;4975284;28;20705;-63
2021/04/18 04:46:42;;;;;;;15.17;10.53;;;;;;;3.37;100.00;96994.19;4974577;28;20183;-63
2021/04/18 04:49:08;;;;;;;11.13;10.10;;;;;;;3.27;100.00;96997.84;4975377;28;20716;-64
2021/04/18 04:51:33;;;;;;;11.67;10.57;;;;;;;3.28;100.00;96998.63;4957145;28;20193;-64
2021/04/18 04:53:58;;;;;;;12.70;11.50;;;;;;;3.20;100.00;97001.28;4973488;28;20232;-64
2021/04/18 04:56:24;;;;;;;12.57;11.40;;;;;;;3.24;100.00;96995.56;4953521;29;20236;-64
2021/04/18 04:58:49;;;;;;;12.07;10.87;;;;;;;3.09;100.00;96993.94;4955397;29;20182;-64
2021/04/18 05:01:14;;;;;;;11.43;10.17;;;;;;;3.15;100.00;97001.81;4953912;29;20178;-65
2021/04/18 05:03:40;;;;;;;13.60;10.70;;;;;;;3.23;100.00;97004.31;4953656;29;20645;-65
2021/04/18 05:06:05;;;;;;;11.20;10.10;;;;;;;3.28;100.00;96998.63;4954378;28;20729;-64
2021/04/18 05:08:31;;;;;;;12.37;10.13;;;;;;;3.25;100.00;97002.38;4953920;29;20268;-64
2021/04/18 05:10:56;;;;;;;10.77;9.67;;;;;;;3.14;100.00;97001.97;4954980;29;20216;-64
2021/04/18 05:13:21;;;;;;;10.07;9.17;;;;;;;3.28;100.00;96999.44;4954752;28;20693;-69
2021/04/18 05:15:47;;;;;;;9.57;8.67;;;;;;;3.13;100.00;97001.16;4953739;29;20620;-65
2021/04/18 05:18:12;;;;;;;10.20;9.20;;;;;;;3.29;100.00;97003.63;4954251;29;20186;-64
2021/04/18 05:20:38;;;;;;;9.93;8.97;;;;;;;3.37;100.00;97001.94;4954896;28;20181;-64
2021/04/18 05:23:03;;;;;;;8.93;8.03;;;;;;;3.46;100.00;97009.47;4955067;28;20193;-66
2021/04/18 05:25:29;;;;;;;9.93;8.70;;;;;;;3.63;99.42;97003.13;4954196;28;20566;-66
2021/04/18 05:27:54;;;;;;;8.00;7.30;;;;;;;3.50;98.66;97007.34;4954846;28;20193;-64
2021/04/18 05:30:20;;;;;;;8.30;7.47;;;;;;;3.47;97.24;97005.09;4954798;28;20209;-69
2021/04/18 05:32:45;;;;;;;8.17;7.17;;;;;;;3.66;97.13;97010.56;4954500;28;20224;-65
2021/04/18 05:35:11;;;;;;;8.07;7.27;;;;;;;3.79;95.41;97014.34;4955165;28;20587;-64
2021/04/18 05:37:37;;;;;;;8.20;7.43;;;;;;;3.83;95.86;97019.00;4954020;29;20309;-65
2021/04/18 05:40:04;;;;;;;8.80;7.90;;;;;;;3.81;95.61;97022.72;4953834;28;20239;-65
2021/04/18 05:42:29;;;;;;;8.10;7.30;;;;;;;3.72;96.54;97019.44;4952820;29;20189;-65
2021/04/18 05:44:55;;;;;;;9.87;7.70;;;;;;;3.73;95.13;97018.44;4954676;28;20185;-65
2021/04/18 05:47:21;;;;;;;8.27;7.57;;;;;;;3.83;95.75;97026.75;4954808;28;20181;-68
2021/04/18 05:49:46;;;;;;;8.40;7.60;;;;;;;3.85;95.73;97026.56;4953325;29;20654;-65
2021/04/18 05:52:14;;;;;;;8.90;8.03;;;;;;;3.78;96.15;97026.50;4954551;28;20197;-65
2021/04/18 05:54:39;;;;;;;8.80;7.83;;;;;;;4.00;94.64;97025.59;4954677;28;20321;-65
2021/04/18 05:57:05;;;;;;;8.87;8.07;;;;;;;4.03;94.87;97022.63;4973790;28;20267;-69
2021/04/18 05:59:30;;;;;;;8.30;7.60;;;;;;;3.89;95.29;97023.47;4973116;28;20649;-71
2021/04/18 06:01:56;;;;;;;9.30;8.33;;;;;;;3.96;94.42;97028.72;4973710;28;20192;-70
2021/04/18 06:04:21;;;;;;;8.20;7.50;;;;;;;3.86;94.75;97028.19;4973297;28;20243;-69
2021/04/18 06:06:47;;;;;;;8.70;7.83;;;;;;;3.99;94.39;97025.78;4973741;28;20227;-66
2021/04/18 06:09:12;;;;;;;7.80;7.10;;;;;;;3.93;94.17;97022.13;4973054;28;21024;-66
2021/04/18 06:11:37;;;;;;;8.40;7.60;;;;;;;4.22;93.92;97025.69;4972355;28;20197;-66
2021/04/18 06:14:03;;;;;;;8.43;7.67;;;;;;;4.37;94.10;97023.88;4973518;28;20201;-65
2021/04/18 06:16:28;;;;;;;8.10;7.40;;;;;;;4.66;92.55;97023.81;4972801;28;20318;-66
2021/04/18 06:18:53;;;;;;;8.20;7.37;;;;;;;4.29;92.22;97023.97;4955408;28;20192;-65
2021/04/18 06:21:19;;;;;;;8.90;7.13;;;;;;;4.28;91.20;97024.97;4973650;28;20616;-66
2021/04/18 06:23:44;;;;;;;7.90;7.10;;;;;;;4.48;90.34;97023.41;4955111;28;20704;-65
2021/04/18 06:26:10;;;;;;;8.00;7.20;;;;;;;4.40;91.47;97026.09;4972954;28;20264;-66
2021/04/18 06:28:35;;;;;;;8.53;7.73;;;;;;;4.51;91.52;97029.00;4972366;28;20191;-65
2021/04/18 06:31:01;;;;;;;8.03;7.23;;;;;;;4.69;90.99;97020.03;4955958;28;20188;-65
2021/04/18 06:33:27;;;;;;;7.80;7.10;;;;;;;4.51;89.74;97026.41;4972045;28;20252;-66
2021/04/18 06:35:52;;;;;;;10.00;7.40;;;;;;;4.25;91.45;97031.31;4955396;28;20615;-66
2021/04/18 06:38:17;;;;;;;8.30;7.50;;;;;;;4.25;92.33;97033.91;4955534;28;20272;-65
2021/04/18 06:40:43;;;;;;;9.60;7.73;;;;;;;4.51;90.60;97036.03;4954979;28;20769;-66
2021/04/18 06:43:11;;;;;;;9.43;7.77;;;;;;;4.53;89.93;97032.25;4955670;28;20569;-65
2021/04/18 06:45:37;;;;;;;9.07;7.87;;;;;;;4.82;89.26;97036.56;4971576;28;20240;-64
2021/04/18 06:48:04;;;;;;;8.83;7.53;;;;;;;5.10;88.16;97038.44;4955503;28;20235;-63
2021/04/18 06:50:29;;;;;;;10.00;8.87;;;;;;;5.20;87.94;97039.72;4971873;28;20540;-65
2021/04/18 06:52:54;;;;;;;10.33;9.23;;;;;;;5.32;87.33;97038.22;4973031;28;20223;-64
2021/04/18 06:55:20;;;;;;;8.50;7.70;;;;;;;5.38;86.38;97029.69;4971821;28;20232;-65
2021/04/18 06:57:46;;;;;;;8.87;7.97;;;;;;;5.35;86.64;97024.84;4954858;28;20287;-65
2021/04/18 07:00:13;;;;;;;9.30;8.37;;;;;;;5.59;86.08;97028.03;4972817;28;20188;-64
2021/04/18 07:02:39;;;;;;;9.67;8.73;;;;;;;5.70;84.64;97030.91;4971211;28;20249;-65
2021/04/18 07:05:07;;;;;;;8.77;7.73;;;;;;;5.83;83.89;97028.41;4972010;28;20666;-64
2021/04/18 07:07:36;;;;;;;11.50;8.33;;;;;;;6.04;82.30;97029.34;4971608;28;20195;-66
2021/04/18 07:10:07;;;;;;;11.07;9.13;;;;;;;6.07;82.94;97022.00;4960164;28;20664;-64
2021/04/18 07:12:34;;;;;;;9.47;8.10;;;;;;;6.11;82.80;97025.00;4970830;28;20385;-64
2021/04/18 07:15:00;;;;;;;10.17;8.13;;;;;;;6.10;82.42;97024.19;4954696;28;20216;-65
2021/04/18 07:17:26;;;;;;;9.07;7.03;;;;;;;6.19;82.58;97017.81;4971938;28;20216;-67
2021/04/18 07:20:08;;;;;;;7.90;7.10;;;;;;;6.20;82.25;97018.63;4972260;28;20209;-65
2021/04/18 07:22:34;;;;;;;8.03;6.73;;;;;;;6.27;81.21;97024.69;4971498;28;20260;-64
2021/04/18 07:24:59;;;;;;;7.37;6.67;;;;;;;6.44;80.32;97023.34;4954510;28;20283;-65
2021/04/18 07:27:45;;;;;;;7.97;7.03;;;;;;;5.75;79.53;97027.75;4971923;28;20193;-67
2021/04/18 07:30:11;;;;;;;9.03;6.70;;;;;;;5.66;82.23;97029.69;4971814;28;20255;-65
2021/04/18 07:32:37;;;;;;;8.03;6.40;;;;;;;5.75;82.45;97031.16;4971102;28;20203;-65
2021/04/18 07:35:03;;;;;;;7.83;7.07;;;;;;;5.70;82.43;97023.13;4954731;28;20200;-65
2021/04/18 07:37:28;;;;;;;7.17;6.43;;;;;;;5.51;81.89;97028.19;4953584;28;20195;-66
2021/04/18 07:39:58;;;;;;;10.77;7.47;;;;;;;5.76;81.13;97022.38;4972659;28;20196;-64
2021/04/18 07:42:40;;;;;;;7.37;6.63;;;;;;;5.00;85.07;97028.34;4972108;28;20228;-66
2021/04/18 07:45:16;;;;;;;7.97;7.17;;;;;;;5.28;84.32;97033.59;4971264;28;20655;-67
2021/04/18 07:47:45;;;;;;;9.70;7.23;;;;;;;5.57;83.97;97025.66;4970880;28;20267;-67
2021/04/18 07:50:21;;;;;;;7.73;6.87;;;;;;;5.53;83.01;97019.19;4971251;28;20675;-66
2021/04/18 07:52:48;;;;;;;8.70;6.97;;;;;;;6.07;81.80;97023.78;4970623;28;20278;-66
2021/04/18 07:55:16;;;;;;;7.90;6.87;;;;;;;6.14;80.75;97030.63;4950301;28;20225;-66
2021/04/18 07:57:41;;;;;;;7.53;6.60;;;;;;;5.93;81.44;97025.50;4951112;29;20174;-66
2021/04/18 08:00:09;;;;;;;8.93;7.27;;;;;;;6.15;81.79;97028.81;4952142;28;20698;-66
2021/04/18 08:02:36;;;;;;;11.00;7.30;;;;;;;6.21;81.62;97023.66;4951573;28;20682;-67
2021/04/18 08:05:02;;;;;;;9.27;7.00;;;;;;;5.70;80.25;97024.91;4952380;28;20658;-67
2021/04/18 08:07:28;;;;;;;9.20;7.40;;;;;;;5.99;78.40;97027.34;4950712;29;20189;-67
2021/04/18 08:10:26;;;;;;;10.03;6.30;;;;;;;5.78;78.40;97023.00;4951310;29;20185;-66
2021/04/18 08:13:02;;;;;;;7.33;5.93;;;;;;;6.41;77.51;97017.75;4945500;29;20200;-66
2021/04/18 08:15:28;;;;;;;10.53;5.80;;;;;;;6.37;76.96;97016.50;4951690;28;20673;-67
2021/04/18 08:18:02;;;;;;;10.57;5.80;;;;;;;6.68;75.40;97029.84;4952030;28;20193;-66
2021/04/18 08:20:36;;;;;;;6.97;5.17;;;;;;;6.02;75.50;97021.75;4951941;29;20188;-67
2021/04/18 08:23:05;;;;;;;6.80;5.73;;;;;;;6.34;76.70;97022.91;4951976;28;20250;-67
2021/04/18 08:25:32;;;;;;;9.10;6.27;;;;;;;6.34;77.82;97019.50;4949096;29;20197;-66
2021/04/18 08:28:16;;;;;;;7.90;6.20;;;;;;;6.23;78.20;97026.06;4951832;28;20189;-64
2021/04/18 08:31:07;;;;;;;8.63;5.80;;;;;;;6.10;78.94;97034.59;4947048;28;20276;-65
2021/04/18 08:34:00;;;;;;;10.17;5.97;;;;;;;6.55;76.79;97029.81;4951318;28;20284;-66
2021/04/18 08:36:27;;;;;;;7.70;5.50;;;;;;;6.86;76.31;97024.88;4944524;29;20200;-68
2021/04/18 08:39:04;;;;;;;7.47;6.00;;;;;;;6.71;75.73;97032.06;4950580;29;20182;-66
2021/04/18 08:41:40;;;;;;;10.17;6.33;;;;;;;6.84;73.77;97034.72;4949438;28;20197;-67
2021/04/18 08:44:26;;;;;;;10.33;6.00;;;;;;;6.65;74.50;97038.03;4952954;28;20220;-66
2021/04/18 08:47:00;;;;;;;6.70;5.53;;;;;;;7.01;72.91;97037.75;4953681;29;20201;-66
2021/04/18 08:49:28;;;;;;;8.57;6.53;;;;;;;7.01;74.77;97033.34;4944749;29;20185;-66
2021/04/18 08:51:54;;;;;;;7.03;5.80;;;;;;;7.25;73.39;97031.97;4950979;28;20201;-67
2021/04/18 08:54:33;;;;;;;6.93;5.67;;;;;;;7.12;73.89;97031.16;4955378;28;20265;-64
2021/04/18 08:57:03;;;;;;;8.07;5.87;;;;;;;7.53;72.56;97029.16;4953765;28;20189;-67
2021/04/18 08:59:29;;;;;;;6.97;5.87;;;;;;;7.84;71.02;97026.75;4954976;28;20224;-68
2021/04/18 09:02:06;;;;;;;6.60;5.70;;;;;;;7.98;70.39;97032.72;4955802;28;20262;-65
2021/04/18 09:04:54;;;;;;;8.40;5.70;;;;;;;7.67;70.22;97029.97;4954225;29;20195;-67
2021/04/18 09:07:24;;;;;;;9.23;4.97;;;;;;;6.88;68.80;97041.13;4947688;29;20689;-65
2021/04/18 09:09:51;;;;;;;7.50;4.93;;;;;;;7.26;68.62;97037.97;4951001;28;20236;-66
2021/04/18 09:12:18;;;;;;;6.67;5.00;;;;;;;7.83;69.35;97037.38;4954087;28;20190;-66
2021/04/18 09:14:46;;;;;;;6.93;5.43;;;;;;;8.16;66.20;97038.13;4953832;28;20229;-67
2021/04/18 09:17:20;;;;;;;8.93;5.80;;;;;;;8.36;66.78;97042.53;4954426;28;20265;-66
2021/04/18 09:20:06;;;;;;;7.13;5.20;;;;;;;8.16;65.60;97039.91;4953742;28;20722;-66
2021/04/18 09:22:36;;;;;;;5.97;5.33;;;;;;;8.19;65.07;97042.91;4952486;29;20181;-64
2021/04/18 09:25:09;;;;;;;8.13;5.20;;;;;;;8.42;65.57;97042.47;4955105;28;20174;-66
2021/04/18 09:27:47;;;;;;;8.60;5.40;;;;;;;8.46;65.31;97040.28;4953760;28;20200;-66
2021/04/18 09:30:14;;;;;;;5.67;4.90;;;;;;;8.02;66.22;97039.16;4949782;29;20248;-69
2021/04/18 09:32:47;;;;;;;7.07;5.27;;;;;;;8.02;66.75;97041.78;4951282;29;20192;-66
2021/04/18 09:35:15;;;;;;;6.57;5.17;;;;;;;8.36;65.71;97045.13;4955047;28;20193;-66
2021/04/18 09:37:43;;;;;;;6.37;5.40;;;;;;;8.72;64.69;97040.16;4952672;28;20190;-67
2021/04/18 09:40:13;;;;;;;6.43;5.20;;;;;;;8.68;63.94;97046.81;4954024;28;20193;-68
2021/04/18 09:42:43;;;;;;;7.00;5.60;;;;;;;8.91;63.95;97046.31;4953573;28;20244;-68
2021/04/18 09:45:14;;;;;;;7.60;5.50;;;;;;;9.11;62.25;97050.41;4953614;29;20689;-67
2021/04/18 09:47:42;;;;;;;8.50;5.80;;;;;;;8.99;61.93;97051.28;4952817;29;20185;-68
2021/04/18 09:50:34;;;;;;;6.03;5.43;;;;;;;8.71;64.13;97049.00;4953925;28;20199;-67
2021/04/18 09:53:22;;;;;;;7.13;6.10;;;;;;;8.32;64.29;97050.75;4947823;28;20299;-67
2021/04/18 09:56:03;;;;;;;7.80;5.40;;;;;;;8.04;64.90;97042.34;4963772;28;20235;-67
2021/04/18 09:58:30;;;;;;;6.10;5.30;;;;;;;8.14;64.53;97047.94;4973720;28;20231;-68
2021/04/18 10:00:56;;;;;;;7.93;5.60;;;;;;;7.97;65.29;97043.38;4969512;28;20216;-66
2021/04/18 10:03:32;;;;;;;6.63;5.40;;;;;;;8.95;63.23;97048.28;4940389;28;20271;-68
2021/04/18 10:05:59;;;;;;;5.90;5.30;;;;;;;8.50;62.83;97042.25;4974163;28;20703;-68
2021/04/18 10:08:31;;;;;;;7.90;5.77;;;;;;;8.30;62.96;97046.75;4973135;28;20187;-68
2021/04/18 10:11:06;;;;;;;7.57;5.50;;;;;;;8.17;63.15;97044.94;4972078;28;20181;-67
2021/04/18 10:13:41;;;;;;;8.10;5.83;;;;;;;8.37;62.52;97047.53;4966517;28;20207;-68
2021/04/18 10:16:08;;;;;;;5.83;5.13;;;;;;;8.49;61.98;97048.50;4974042;28;20184;-68
2021/04/18 10:18:37;;;;;;;7.73;5.60;;;;;;;8.89;60.37;97048.31;4950465;28;20196;-68
2021/04/18 10:21:22;;;;;;;7.73;5.97;;;;;;;8.71;60.18;97047.19;4939692;28;20181;-70
2021/04/18 10:23:49;;;;;;;6.10;5.37;;;;;;;8.26;60.68;97041.09;4955439;28;20276;-68
2021/04/18 10:26:21;;;;;;;8.67;5.63;;;;;;;8.74;63.35;97046.78;4969480;28;20193;-72
2021/04/18 10:28:49;;;;;;;9.60;5.93;;;;;;;8.38;66.36;97041.28;4970774;28;20193;-69
2021/04/18 10:31:19;;;;;;;7.20;6.10;;;;;;;8.35;60.20;97039.09;4955774;28;20583;-71
2021/04/18 10:33:45;;;;;;;7.77;6.07;;;;;;;8.57;61.61;97047.47;4938970;28;20705;-70
2021/04/18 10:36:12;;;;;;;9.30;6.67;;;;;;;8.71;60.11;97041.97;4972745;28;20220;-70
2021/04/18 10:38:37;;;;;;;7.20;6.17;;;;;;;9.03;60.14;97044.59;4972038;28;20204;-70
2021/04/18 10:41:04;;;;;;;6.73;5.90;;;;;;;9.51;58.65;97029.22;4973409;28;20585;-69
2021/04/18 10:43:29;;;;;;;7.43;5.13;;;;;;;9.55;57.66;97025.13;4955193;28;20283;-72
2021/04/18 10:45:55;;;;;;;8.63;5.67;;;;;;;9.34;58.48;97038.59;4954371;28;20279;-70
2021/04/18 10:48:20;;;;;;;8.73;6.10;;;;;;;9.13;59.07;97027.47;4972193;28;20264;-69
2021/04/18 10:50:46;;;;;;;9.77;6.70;;;;;;;8.46;61.21;97027.22;4971345;28;20602;-70
2021/04/18 10:53:12;;;;;;;7.70;6.13;;;;;;;8.51;61.43;97028.19;4955108;28;20219;-69
2021/04/18 10:55:38;;;;;;;10.53;6.23;;;;;;;8.89;61.00;97024.78;4967458;28;20343;-70
2021/04/18 10:58:03;;;;;;;13.43;10.90;;;;;;;9.27;60.74;97019.53;4955227;28;20195;-70
2021/04/18 11:00:29;;;;;;;11.07;7.27;;;;;;;9.45;59.45;97024.81;4955654;28;20585;-69
2021/04/18 11:02:55;;;;;;;92.53;84.00;;;;;;;9.31;61.14;97021.50;4970497;28;20188;-71
2021/04/18 11:05:21;;;;;;;224.30;199.57;;;;;;;9.80;58.84;97017.28;4966836;28;20193;-70
2021/04/18 11:07:46;;;;;;;273.33;221.43;;;;;;;10.11;58.56;97019.78;4955062;28;20645;-74
2021/04/18 11:10:12;;;;;;;23.50;21.20;;;;;;;10.39;56.05;97022.72;4972239;28;20268;-69
2021/04/18 11:12:41;;;;;;;145.50;130.90;;;;;;;11.18;54.88;97013.84;4971657;28;20180;-70
2021/04/18 11:15:07;;;;;;;58.73;53.13;;;;;;;11.29;54.51;97021.94;4964924;28;20262;-71
2021/04/18 11:17:33;;;;;;;16.30;7.80;;;;;;;11.02;53.41;97016.28;4971362;28;20232;-72
2021/04/18 11:19:59;;;;;;;30.93;28.30;;;;;;;10.57;54.56;97024.53;4953950;28;20636;-70
2021/04/18 11:22:25;;;;;;;10.87;9.10;;;;;;;10.96;55.55;97017.97;4972116;28;20185;-70
2021/04/18 11:24:51;;;;;;;9.67;6.97;;;;;;;10.50;55.63;97023.00;4971660;28;20202;-69
2021/04/18 11:27:16;;;;;;;8.87;7.40;;;;;;;10.07;55.90;97025.69;4955198;28;20582;-70
2021/04/18 11:29:42;;;;;;;11.17;8.23;;;;;;;10.68;54.98;97017.75;4971480;28;20196;-70
2021/04/18 11:32:08;;;;;;;10.50;7.87;;;;;;;10.36;55.29;97014.53;4971878;28;20192;-70
2021/04/18 11:34:34;;;;;;;7.70;6.70;;;;;;;10.29;56.09;97011.97;4954576;28;20200;-71
2021/04/18 11:37:00;;;;;;;7.50;6.73;;;;;;;10.28;55.68;97012.19;4971433;28;20212;-69
2021/04/18 11:39:27;;;;;;;8.13;7.20;;;;;;;9.81;57.38;97016.25;4971466;28;20618;-72